KVIH/VIH METAR and TAF weather

Enter ICAO airport designator
Station Type Date Time Source
KVIH METAR 2019/02/21 14:53 UTC NOAA

KVIH 211453Z AUTO 04004KT 10SM CLR 03/M04 A3021 RMK AO2 SLP238 I3000 T00281039 51021


Station Type Date Time Source
KVIH Decoded METAR 2019/02/21 14:53 UTC NOAA

ROLLA/VICHY ROLLA NATIONAL, MO, United States (KVIH) 38-08N 91-46W 333M
Feb 21, 2019 - 09:53 AM EST / 2019.02.21 1453 UTC
Wind: from the NE (040 degrees) at 5 MPH (4 KT):0
Visibility: 10 mile(s):0
Sky conditions: clear
Temperature: 37.0 F (2.8 C)
Dew Point: 25.0 F (-3.9 C)
Relative Humidity: 61%
Pressure (altimeter): 30.21 in. Hg (1023 hPa)
Pressure tendency: 0.06 inches (2.1 hPa) higher than three hours ago
ob: KVIH 211453Z AUTO 04004KT 10SM CLR 03/M04 A3021 RMK AO2 SLP238 I3000 T00281039 51021
cycle: 15

Station Type Date Time Source
KVIH TAF UTC NOAA

Error!


Example: see airport list